Flight Track Log - Related Links

Times and Time Zones

All times are in EDT time to prevent confusion due to time zone crossing. See the N79TS flight status page for this flight to view local times or setup timezone preferences in your user account.

Time Position Orientation Groundspeed Altitude Reporting Facility
EDT Latitude Longitude Course Direction KTS MPH feet Rate Location/Type
Thu 11:43:38 AM 42.6486 -89.0922 262° West 215 247 2,700  Level Chicago Center
Thu 11:44:40 AM 42.6422 -89.1781 264° West 248 285 5,500 3,194 Climbing Chicago Center
Thu 11:45:42 AM 42.6250 -89.2906 258° West 259 298 9,300 2,855 Climbing Chicago Center
Thu 11:46:44 AM 42.6094 -89.3972 259° West 286 329 11,400 2,226 Climbing Chicago Center
Thu 11:47:46 AM 42.5925 -89.5122 259° West 307 353 13,900 1,403 Climbing Chicago Center
Thu 11:48:00 AM 42.5319 -89.8708 262° West  Level Estimated
Thu 11:48:48 AM 42.5744 -89.6233 258° West 304 350 14,300  Level Chicago Center
Thu 11:49:50 AM 42.5553 -89.7322 257° West 298 343 17,100 2,274 Climbing Chicago Center
Thu 11:50:52 AM 42.5408 -89.8386 260° West 286 329 19,000 1,680 Climbing Chicago Center
Thu 11:51:55 AM 42.5228 -89.9611 259° West 310 357 20,600 1,440 Climbing Chicago Center
Thu 11:52:57 AM 42.5033 -90.0831 258° West 331 381 22,000 1,161 Climbing Chicago Center
Thu 11:53:59 AM 42.4825 -90.2139 258° West 355 409 23,000 1,355 Climbing Chicago Center
Thu 11:55:01 AM 42.4569 -90.3722 258° West 363 418 24,800 1,839 Climbing Chicago Center
Thu 11:56:03 AM 42.4356 -90.5047 258° West 362 417 26,800 1,935 Climbing Chicago Center
Thu 11:57:05 AM 42.4133 -90.6339 257° West 357 411 28,800 1,742 Climbing Chicago Center
Thu 11:58:07 AM 42.3958 -90.7611 259° West 349 402 30,400 1,355 Climbing Chicago Center
Thu 11:59:09 AM 42.3842 -90.9094 264° West 350 403 31,600 1,258 Climbing Chicago Center
Thu 12:00:11 PM 42.3697 -91.0514 262° West 358 412 33,000 1,258 Climbing Chicago Center
Thu 12:01:13 PM 42.3572 -91.1817 263° West 352 405 34,200 1,258 Climbing Chicago Center
Thu 12:02:15 PM 42.3453 -91.3094 263° West 347 399 35,600 968 Climbing Chicago Center
Thu 12:03:17 PM 42.3322 -91.4342 262° West 338 389 36,200 576 Climbing Chicago Center
Thu 12:04:20 PM 42.3203 -91.5600 263° West 339 390 36,800 576 Climbing Chicago Center
Thu 12:05:22 PM 42.3069 -91.6853 262° West 337 388 37,400 581 Climbing Chicago Center
Thu 12:06:24 PM 42.2914 -91.8364 262° West 339 390 38,000 290 Climbing Chicago Center
Thu 12:07:26 PM 42.2786 -91.9636 262° West 342 394 38,000  Level Chicago Center
Thu 12:08:28 PM 42.2644 -92.0958 262° West 354 407 38,000  Level Chicago Center
Thu 12:09:30 PM 42.2506 -92.2336 262° West 368 423 38,000  Level Chicago Center
Thu 12:10:32 PM 42.2367 -92.3719 262° West 372 428 38,000  Level Chicago Center
Thu 12:11:34 PM 42.2181 -92.5358 261° West 372 428 38,000  Level Chicago Center
Thu 12:12:36 PM 42.2033 -92.6725 262° West 371 427 38,000  Level Chicago Center
Thu 12:13:38 PM 42.1881 -92.8092 261° West 372 428 38,000  Level Chicago Center
Thu 12:14:40 PM 42.1728 -92.9472 262° West 375 432 38,000  Level Chicago Center
Thu 12:15:42 PM 42.1569 -93.0847 261° West 377 434 38,000  Level Chicago Center
Thu 12:16:44 PM 42.1372 -93.2519 261° West 378 435 38,000  Level Chicago Center
Thu 12:17:46 PM 42.1211 -93.3919 261° West 381 438 38,000  Level Chicago Center
Thu 12:18:49 PM 42.1047 -93.5319 261° West 383 441 38,000  Level Chicago Center
Thu 12:19:51 PM 42.0889 -93.6714 261° West 381 438 38,000  Level Chicago Center
Thu 12:20:53 PM 42.0722 -93.8111 261° West 382 440 38,000  Level Chicago Center
Thu 12:21:55 PM 42.0514 -93.9756 260° West 375 432 38,000  Level Chicago Center
Thu 12:22:57 PM 42.0344 -94.1139 261° West 377 434 38,000  Level Chicago Center
Thu 12:23:59 PM 42.0181 -94.2511 261° West 376 433 38,000  Level Chicago Center
Thu 12:25:23 PM 41.9942 -94.4544 261° West 376 433 38,000  Level Minneapolis Center
Thu 12:26:25 PM 41.9764 -94.5925 260° West 375 432 38,000  Level Minneapolis Center
Thu 12:27:27 PM 41.9583 -94.7311 260° West 376 433 38,000  Level Minneapolis Center
Thu 12:28:29 PM 41.9397 -94.8686 260° West 376 433 38,000  Level Minneapolis Center
Thu 12:29:31 PM 41.9225 -95.0078 261° West 377 434 38,000  Level Minneapolis Center
Thu 12:30:33 PM 41.9000 -95.1717 260° West 373 429 38,000  Level Minneapolis Center
Thu 12:31:35 PM 41.8822 -95.3108 260° West 378 435 38,000  Level Minneapolis Center
Thu 12:32:37 PM 41.8625 -95.4497 259° West 380 437 38,000  Level Minneapolis Center
Thu 12:33:40 PM 41.8442 -95.5883 260° West 379 436 38,000  Level Minneapolis Center
Thu 12:34:42 PM 41.8253 -95.7264 260° West 379 436 38,000  Level Minneapolis Center
Thu 12:35:44 PM 41.8019 -95.8917 259° West 378 435 38,000  Level Minneapolis Center
Thu 12:36:46 PM 41.7831 -96.0308 260° West 381 438 38,000  Level Minneapolis Center
Thu 12:37:48 PM 41.7639 -96.1700 260° West 384 442 38,000  Level Minneapolis Center
Thu 12:38:50 PM 41.7439 -96.3097 259° West 384 442 38,000  Level Minneapolis Center
Thu 12:39:52 PM 41.7244 -96.4497 260° West 386 444 38,000  Level Minneapolis Center
Thu 12:40:54 PM 41.7000 -96.6167 259° West 386 444 38,000  Level Minneapolis Center
Thu 12:41:56 PM 41.6800 -96.7583 259° West 388 447 38,000  Level Minneapolis Center
Thu 12:42:58 PM 41.6586 -96.8989 259° West 389 448 38,000  Level Minneapolis Center
Thu 12:44:00 PM 41.6375 -97.0394 259° West 389 448 38,000  Level Minneapolis Center
Thu 12:45:02 PM 41.6158 -97.1817 259° West 390 449 38,000  Level Minneapolis Center
Thu 12:46:04 PM 41.5944 -97.3233 259° West 390 449 38,000  Level Minneapolis Center
Thu 12:47:06 PM 41.5686 -97.4931 259° West 390 449 38,000  Level Minneapolis Center
Thu 12:48:09 PM 41.5464 -97.6350 258° West 391 450 38,000  Level Minneapolis Center
Thu 12:49:11 PM 41.5244 -97.7767 258° West 391 450 38,000  Level Minneapolis Center
Thu 12:50:13 PM 41.5008 -97.9172 257° West 390 449 38,000  Level Minneapolis Center
Thu 12:51:15 PM 41.4797 -98.0581 259° West 389 448 38,000  Level Minneapolis Center
Thu 12:52:17 PM 41.4547 -98.2097 258° West 390 449 38,000  Level Minneapolis Center
Thu 12:53:19 PM 41.4322 -98.3511 258° West 391 450 38,000  Level Minneapolis Center
Thu 12:54:21 PM 41.4083 -98.5111 259° West 392 451 38,000  Level Minneapolis Center
Thu 12:55:23 PM 41.3833 -98.6539 257° West 394 453 38,000  Level Minneapolis Center
Thu 12:56:25 PM 41.3581 -98.7964 257° West 395 455 38,000  Level Minneapolis Center
Thu 12:57:27 PM 41.3331 -98.9383 257° West 395 455 38,000  Level Minneapolis Center
Thu 12:58:29 PM 41.3075 -99.0806 257° West 396 456 38,000  Level Minneapolis Center
Thu 12:59:31 PM 41.2819 -99.2528 259° West 392 451 38,000  Level Minneapolis Center
Thu 01:00:33 PM 41.2581 -99.3917 257° West 388 447 38,000  Level Minneapolis Center
Thu 01:01:36 PM 41.2344 -99.5294 257° West 385 443 38,000  Level Minneapolis Center
Thu 01:02:38 PM 41.2100 -99.6672 257° West 385 443 38,000  Level Minneapolis Center
Thu 01:03:40 PM 41.1861 -99.8050 257° West 384 442 38,000  Level Minneapolis Center
Thu 01:04:42 PM 41.1625 -99.9433 257° West 384 442 38,000  Level Minneapolis Center
Thu 01:05:44 PM 41.1325 -100.1072 256° West 382 440 38,000  Level Minneapolis Center
Thu 01:06:46 PM 41.1083 -100.2450 257° West 383 441 38,000 -387 Level Minneapolis Center
Thu 01:07:48 PM 41.0831 -100.3861 257° West 387 445 37,200 -968 Descending Minneapolis Center
Thu 01:08:50 PM 41.0561 -100.5306 256° West 396 456 36,000 -497 Descending Minneapolis Center
Thu 01:10:13 PM 41.0203 -100.7342 257° West 402 463 36,000  Level Denver Center
Thu 01:11:15 PM 40.9906 -100.8897 256° West 399 459 36,000  Level Denver Center
Thu 01:12:17 PM 40.9644 -101.0219 255° West 393 452 36,000 -48 Level Denver Center
Thu 01:13:19 PM 40.9350 -101.1753 256° West 389 448 35,900 -629 Descending Denver Center
Thu 01:14:21 PM 40.9089 -101.3131 256° West 401 461 34,700 -919 Descending Denver Center
Thu 01:15:23 PM 40.8761 -101.4817 256° West 423 487 34,000 -339 Descending Denver Center
Thu 01:16:25 PM 40.8494 -101.6231 256° West 417 480 34,000 -339 Level Denver Center
Thu 01:17:27 PM 40.8228 -101.7614 256° West 409 471 33,300 -823 Descending Denver Center
Thu 01:18:29 PM 40.7897 -101.9261 255° West 416 479 32,300 -419 Descending Denver Center
Thu 01:20:33 PM 40.7303 -102.2261 255° West 403 464 32,000 -97 Descending Denver Center
Thu 01:21:35 PM 40.7019 -102.3606 255° West 399 459 32,000  Level Denver Center
Thu 01:22:37 PM 40.6692 -102.5169 255° West 397 457 32,000  Level Denver Center
Thu 01:23:39 PM 40.6403 -102.6628 255° West 398 458 32,000  Level Denver Center
Thu 01:24:41 PM 40.6111 -102.8017 255° West 397 457 32,000  Level Denver Center
Thu 01:25:43 PM 40.5833 -102.9431 256° West 400 460 32,000  Level Denver Center
Thu 01:26:45 PM 40.5533 -103.0850 254° West 404 465 32,000  Level Denver Center
Thu 01:27:47 PM 40.5236 -103.2283 255° West 408 470 32,000 -384 Level Denver Center
Thu 01:28:50 PM 40.4861 -103.4008 254° West 411 473 31,200 -1,776 Descending Denver Center
Thu 01:29:52 PM 40.4561 -103.5461 255° West 413 475 28,300 -2,758 Descending Denver Center
Thu 01:30:54 PM 40.4267 -103.6856 255° West 401 461 25,500 -2,758 Descending Denver Center
Thu 01:31:56 PM 40.3958 -103.8308 254° West 401 461 22,600 -2,710 Descending Denver Center
Thu 01:32:58 PM 40.3664 -103.9639 254° West 354 407 19,900 -2,371 Descending Denver Center
Thu 01:34:00 PM 40.3561 -104.0806 263° West 321 369 17,700 -1,839 Descending Denver Center
Thu 01:35:02 PM 40.3553 -104.2036 270° West 316 364 16,100 -1,355 Descending Denver Center
Thu 01:36:04 PM 40.3519 -104.3192 268° West 319 367 14,900 -1,113 Descending Denver Center
Thu 01:37:06 PM 40.3117 -104.4267 244° Southwest 308 354 13,800 -1,210 Descending Denver Center
Thu 01:38:08 PM 40.2622 -104.5156 234° Southwest 304 350 12,400 -1,645 Descending Denver Center
Thu 01:39:10 PM 40.2361 -104.6203 252° West 281 323 10,400 -1,161 Descending Denver Center
Thu 01:40:12 PM 40.1908 -104.6753 223° Southwest 236 272 10,000 -581 Descending Denver Center
Thu 01:41:14 PM 40.1197 -104.6831 185° South 240 276 9,200 -919 Descending Denver Center
Thu 01:42:16 PM 40.0533 -104.6853 181° South 238 274 8,100 -1,016 Descending Denver Center
Thu 01:43:18 PM 39.9956 -104.6858 180° South 209 241 7,100 -919 Descending Denver Center
Thu 01:44:20 PM 39.9458 -104.6864 180° South 169 194 6,200 -774 Descending Denver Center
Thu 01:45:22 PM 39.9019 -104.6867 180° South 158 182 5,500 -677 Descending Denver Center
Thu 01:47:00 PM 39.8617 -104.6732 North  Level Estimated
Thu 01:54:00 PM 39.8617 -104.6732 North  Level Estimated
Thu 01:55:00 PM 39.8617 -104.6732 North  Level Estimated
Thu 01:56:00 PM 39.8617 -104.6732 North  Level Estimated

Login

Don't have an account? Register now (free) for customized features, flight alerts, and more!